Time;durP1;ratioP1;P1;durP2;ratioP2;P2;SDS_P1;SDS_P2;PMS_P1;PMS_P2;Temp;Humidity;BMP_temperature;BMP_pressure;BME280_temperature;BME280_humidity;BME280_pressure;Samples;Min_cycle;Max_cycle;Signal;HPM_P1;HPM_P2
2022/12/21 00:00:22;;;;;;;30.10;22.20;;;;;;;-1.34;100.00;97065.75;4986991;28;20215;-72
2022/12/21 00:02:49;;;;;;;42.67;22.73;;;;;;;-1.35;100.00;97063.25;5028459;28;20214;-71
2022/12/21 00:05:17;;;;;;;35.40;23.43;;;;;;;-1.28;100.00;97054.06;5028282;28;20228;-72
2022/12/21 00:07:45;;;;;;;39.60;23.37;;;;;;;-1.28;100.00;97056.69;5006957;28;20215;-72
2022/12/21 00:10:12;;;;;;;38.83;23.93;;;;;;;-1.22;100.00;97051.03;5011978;28;20320;-73
2022/12/21 00:12:40;;;;;;;32.40;22.83;;;;;;;-1.20;100.00;97038.75;5027354;28;20613;-72
2022/12/21 00:15:10;;;;;;;34.63;22.77;;;;;;;-1.11;100.00;97046.78;4985725;28;20231;-71
2022/12/21 00:17:41;;;;;;;36.90;23.70;;;;;;;-1.13;100.00;97044.31;4991827;28;20196;-71
2022/12/21 00:20:13;;;;;;;32.80;23.50;;;;;;;-1.02;100.00;97046.09;5033779;28;20285;-72
2022/12/21 00:22:40;;;;;;;31.17;22.93;;;;;;;-0.94;100.00;97037.72;5028052;28;20250;-72
2022/12/21 00:25:09;;;;;;;32.10;22.23;;;;;;;-0.96;100.00;97035.22;5037439;28;20220;-73
2022/12/21 00:27:36;;;;;;;32.53;23.10;;;;;;;-0.98;100.00;97031.91;5035527;28;20231;-71
2022/12/21 00:30:05;;;;;;;34.87;22.83;;;;;;;-0.98;100.00;97026.72;5035783;28;20857;-72
2022/12/21 00:32:34;;;;;;;35.70;24.13;;;;;;;-0.97;100.00;97024.97;5033053;28;20208;-72
2022/12/21 00:35:01;;;;;;;31.63;21.57;;;;;;;-0.88;100.00;97024.25;5037592;28;20739;-73
2022/12/21 00:37:29;;;;;;;32.53;22.67;;;;;;;-0.87;100.00;97018.09;4980202;28;20212;-73
2022/12/21 00:39:56;;;;;;;34.20;22.97;;;;;;;-0.98;100.00;97005.91;5016952;28;20211;-71
2022/12/21 00:42:24;;;;;;;33.13;21.90;;;;;;;-1.02;100.00;97007.09;5030192;28;20204;-70
2022/12/21 00:44:51;;;;;;;31.80;23.10;;;;;;;-0.97;100.00;97043.97;5013252;28;20578;-71
2022/12/21 00:47:19;;;;;;;29.73;22.80;;;;;;;-0.94;100.00;97032.53;5018569;28;20254;-73
2022/12/21 00:49:48;;;;;;;34.83;21.87;;;;;;;-0.85;100.00;97041.41;5026700;28;20687;-71
2022/12/21 00:52:16;;;;;;;32.57;21.80;;;;;;;-0.82;100.00;97043.78;4981794;28;22013;-72
2022/12/21 00:54:43;;;;;;;34.80;23.70;;;;;;;-0.88;100.00;97043.31;5027409;28;20223;-71
2022/12/21 00:57:11;;;;;;;36.30;23.30;;;;;;;-0.85;100.00;97044.03;5027524;28;20515;-72
2022/12/21 00:59:39;;;;;;;32.73;22.83;;;;;;;-0.92;100.00;97052.28;5025615;28;20210;-73
2022/12/21 01:02:06;;;;;;;34.93;23.87;;;;;;;-1.05;100.00;97035.94;5009042;28;20405;-73
2022/12/21 01:04:34;;;;;;;36.63;24.67;;;;;;;-1.18;100.00;97039.44;5030200;28;20227;-73
2022/12/21 01:07:03;;;;;;;35.77;23.17;;;;;;;-1.33;100.00;97036.22;4976259;28;23151;-73
2022/12/21 01:09:31;;;;;;;39.30;26.00;;;;;;;-1.42;100.00;97044.69;5028713;28;20673;-73
2022/12/21 01:11:59;;;;;;;39.67;25.70;;;;;;;-1.51;100.00;97043.56;5025089;28;20707;-73
2022/12/21 01:14:27;;;;;;;36.77;24.77;;;;;;;-1.48;100.00;97040.75;5025909;28;20231;-73
2022/12/21 01:16:54;;;;;;;38.20;23.80;;;;;;;-1.40;100.00;97045.41;5011554;28;20204;-71
2022/12/21 01:19:22;;;;;;;37.20;25.67;;;;;;;-1.44;100.00;97046.56;5025166;28;20208;-72
2022/12/21 01:21:50;;;;;;;34.40;23.80;;;;;;;-1.35;100.00;97050.25;4997850;28;20214;-69
2022/12/21 01:24:19;;;;;;;34.70;23.93;;;;;;;-1.33;100.00;97062.19;5017892;28;20747;-71
2022/12/21 01:26:47;;;;;;;34.50;24.37;;;;;;;-1.21;100.00;97057.03;5026489;28;20203;-69
2022/12/21 01:29:14;;;;;;;37.57;25.33;;;;;;;-1.11;100.00;97054.59;5027366;28;20622;-71
2022/12/21 01:31:42;;;;;;;37.30;26.03;;;;;;;-1.15;100.00;97046.19;5024800;28;20230;-69
2022/12/21 01:34:10;;;;;;;37.70;23.63;;;;;;;-1.09;100.00;97073.50;5009723;28;20231;-71
2022/12/21 01:36:37;;;;;;;39.27;25.20;;;;;;;-1.10;100.00;97080.50;5025479;28;20715;-72
2022/12/21 01:39:05;;;;;;;34.07;24.07;;;;;;;-1.20;100.00;97085.53;4977360;28;20208;-71
2022/12/21 01:41:34;;;;;;;34.83;23.40;;;;;;;-1.16;100.00;97073.13;5024006;28;20212;-72
2022/12/21 01:44:04;;;;;;;35.73;24.77;;;;;;;-1.19;100.00;97089.78;5023916;28;20761;-72
2022/12/21 01:46:35;;;;;;;37.57;24.67;;;;;;;-1.22;100.00;97113.41;5024490;28;20226;-72
2022/12/21 01:49:11;;;;;;;38.90;24.60;;;;;;;-1.29;100.00;97106.16;5008095;28;20244;-72
2022/12/21 01:51:39;;;;;;;35.87;24.53;;;;;;;-1.32;100.00;97102.03;5020679;28;20199;-73
2022/12/21 01:54:11;;;;;;;30.87;23.30;;;;;;;-1.28;100.00;97097.44;4977788;28;20982;-72
2022/12/21 01:56:41;;;;;;;38.80;25.40;;;;;;;-1.23;100.00;97101.38;5028341;28;20528;-72
2022/12/21 01:59:11;;;;;;;36.57;24.57;;;;;;;-1.23;100.00;97103.97;5025008;28;20563;-73
2022/12/21 02:01:38;;;;;;;36.53;23.90;;;;;;;-1.22;100.00;97082.22;5026878;28;20651;-73
2022/12/21 02:04:07;;;;;;;35.07;23.17;;;;;;;-1.18;100.00;97082.81;5007059;28;20803;-72
2022/12/21 02:06:39;;;;;;;39.67;25.10;;;;;;;-1.24;100.00;97078.91;5025869;28;20336;-74
2022/12/21 02:09:07;;;;;;;36.63;24.47;;;;;;;-1.23;100.00;97085.75;5023278;28;20471;-72
2022/12/21 02:11:34;;;;;;;36.70;23.77;;;;;;;-1.22;100.00;97083.97;4986324;28;20213;-71
2022/12/21 02:14:03;;;;;;;33.60;24.07;;;;;;;-1.29;100.00;97075.81;5023788;28;20601;-73
2022/12/21 02:16:41;;;;;;;38.20;24.93;;;;;;;-1.21;100.00;97083.03;5027656;28;20226;-72
2022/12/21 02:19:54;;;;;;;34.20;24.20;;;;;;;-1.33;100.00;97077.81;5003173;28;20212;-71
2022/12/21 02:22:27;;;;;;;34.47;24.93;;;;;;;-1.29;100.00;97073.22;5021673;28;20760;-71
2022/12/21 02:25:10;;;;;;;36.73;23.17;;;;;;;-1.40;100.00;97065.34;4988155;28;20250;-71
2022/12/21 02:28:10;;;;;;;34.17;23.43;;;;;;;-1.41;100.00;97055.91;5025909;28;20223;-73
2022/12/21 02:30:56;;;;;;;35.20;23.87;;;;;;;-1.47;100.00;97059.78;5026763;28;20687;-73
2022/12/21 02:33:31;;;;;;;38.00;23.27;;;;;;;-1.36;100.00;97057.22;5027653;28;20679;-72
2022/12/21 02:36:07;;;;;;;38.33;23.37;;;;;;;-1.38;100.00;97040.91;5008756;28;20606;-74
2022/12/21 02:38:45;;;;;;;35.13;24.80;;;;;;;-1.38;100.00;97050.47;5009140;28;20513;-70
2022/12/21 02:41:17;;;;;;;40.20;25.57;;;;;;;-1.38;100.00;97042.69;4982492;28;20666;-72
2022/12/21 02:46:42;;;;;;;34.97;24.43;;;;;;;-1.30;100.00;97014.38;5010167;28;20477;-73
2022/12/21 02:49:11;;;;;;;37.33;25.37;;;;;;;-1.25;100.00;97037.41;5027866;28;20770;-72
2022/12/21 02:51:43;;;;;;;37.03;23.23;;;;;;;-1.29;100.00;97033.38;5007429;28;20299;-73
2022/12/21 02:54:11;;;;;;;31.20;23.10;;;;;;;-1.34;100.00;97029.34;5029406;28;20239;-71
2022/12/21 02:56:38;;;;;;;33.30;23.53;;;;;;;-1.26;100.00;97034.00;5029931;28;20215;-73
2022/12/21 02:59:08;;;;;;;38.40;24.83;;;;;;;-1.27;100.00;97031.50;4990530;28;20210;-72
2022/12/21 03:01:59;;;;;;;38.03;24.17;;;;;;;-1.29;100.00;97044.63;5023076;28;20204;-72
2022/12/21 03:04:40;;;;;;;34.20;23.30;;;;;;;-1.34;100.00;97044.09;4992455;28;20254;-71
2022/12/21 03:07:24;;;;;;;36.20;23.03;;;;;;;-1.28;100.00;97037.63;5004821;28;20510;-73
2022/12/21 03:09:57;;;;;;;36.43;23.57;;;;;;;-1.22;100.00;97044.97;5030216;28;20219;-71
2022/12/21 03:12:31;;;;;;;31.00;23.57;;;;;;;-1.27;100.00;97039.28;5010762;28;20211;-73
2022/12/21 03:15:05;;;;;;;36.43;24.73;;;;;;;-1.41;100.00;97035.94;4988149;28;20231;-72
2022/12/21 03:17:41;;;;;;;39.13;24.67;;;;;;;-1.46;100.00;97044.06;5024103;28;20657;-73
2022/12/21 03:20:13;;;;;;;38.10;25.13;;;;;;;-1.38;100.00;97042.69;5028310;28;20203;-70
2022/12/21 03:22:43;;;;;;;37.90;23.83;;;;;;;-1.35;100.00;97040.69;4994133;28;20204;-72
2022/12/21 03:25:14;;;;;;;36.07;25.10;;;;;;;-1.35;100.00;97039.84;5026846;28;20718;-71
2022/12/21 03:27:44;;;;;;;33.77;21.97;;;;;;;-1.27;100.00;97037.53;5023828;28;20301;-72
2022/12/21 03:30:15;;;;;;;36.97;26.30;;;;;;;-1.27;100.00;97032.34;4983490;28;20766;-70
2022/12/21 03:32:46;;;;;;;36.40;23.83;;;;;;;-1.31;100.00;97015.31;5004676;28;20671;-71
2022/12/21 03:35:21;;;;;;;39.67;25.63;;;;;;;-1.33;100.00;97010.22;5023825;28;20440;-73
2022/12/21 03:37:49;;;;;;;35.77;24.00;;;;;;;-1.28;100.00;97015.09;4993472;28;20218;-72
2022/12/21 03:40:20;;;;;;;33.70;23.77;;;;;;;-1.29;100.00;97010.81;5031568;28;20204;-73
2022/12/21 03:42:50;;;;;;;38.27;24.57;;;;;;;-1.15;100.00;97001.97;5027886;28;20207;-71
2022/12/21 03:45:20;;;;;;;36.03;23.97;;;;;;;-1.09;100.00;97000.69;5030302;28;20250;-73
2022/12/21 03:47:52;;;;;;;33.00;23.70;;;;;;;-1.02;100.00;96999.28;4980233;28;20216;-70
2022/12/21 03:50:23;;;;;;;35.50;24.87;;;;;;;-1.15;100.00;97003.75;5028202;28;20247;-73
2022/12/21 03:52:54;;;;;;;34.60;24.23;;;;;;;-1.20;100.00;97002.34;5003730;28;20522;-71
2022/12/21 03:55:25;;;;;;;36.47;24.60;;;;;;;-1.18;100.00;97004.81;5027557;28;20238;-74
2022/12/21 03:57:53;;;;;;;35.03;23.73;;;;;;;-1.20;100.00;97006.69;5026623;28;20719;-73
2022/12/21 04:00:21;;;;;;;34.30;22.20;;;;;;;-1.20;100.00;97007.53;5030344;28;20659;-72
2022/12/21 04:02:55;;;;;;;34.30;23.87;;;;;;;-1.22;100.00;97003.38;4979028;28;20757;-72
2022/12/21 04:05:26;;;;;;;30.47;23.00;;;;;;;-1.27;100.00;97011.53;5030739;28;20228;-73
2022/12/21 04:07:54;;;;;;;34.27;23.67;;;;;;;-1.29;100.00;97009.97;5008088;28;20713;-74
2022/12/21 04:10:22;;;;;;;32.80;23.23;;;;;;;-1.28;100.00;97016.84;5030594;28;20223;-72
2022/12/21 04:12:49;;;;;;;36.50;24.43;;;;;;;-1.32;100.00;97017.06;5026356;28;20284;-71
2022/12/21 04:15:19;;;;;;;31.77;23.93;;;;;;;-1.24;100.00;97021.72;5024137;28;20250;-72
2022/12/21 04:17:48;;;;;;;40.23;24.33;;;;;;;-1.33;100.00;97018.00;4983004;28;20219;-71
2022/12/21 04:20:18;;;;;;;35.40;26.23;;;;;;;-1.31;100.00;97017.91;5024859;28;20192;-73
2022/12/21 04:28:21;;;;;;;34.23;23.43;;;;;;;-1.18;100.00;97012.59;5029461;28;20249;-73
2022/12/21 04:31:09;;;;;;;34.57;22.83;;;;;;;-1.18;100.00;97008.25;5026552;28;20522;-73
2022/12/21 04:33:37;;;;;;;35.57;23.40;;;;;;;-1.28;100.00;97006.44;4988082;28;20310;-72
2022/12/21 04:38:52;;;;;;;35.10;23.30;;;;;;;-1.27;100.00;97016.75;5005739;28;20854;-70
2022/12/21 04:41:19;;;;;;;32.07;23.37;;;;;;;-1.25;100.00;97020.06;5031928;28;20214;-72
2022/12/21 04:43:47;;;;;;;38.47;24.43;;;;;;;-1.26;100.00;97027.94;5027294;28;20238;-71
2022/12/21 04:46:16;;;;;;;33.43;23.33;;;;;;;-1.30;100.00;97019.56;5015094;28;20210;-71
2022/12/21 04:48:44;;;;;;;33.17;24.03;;;;;;;-1.25;100.00;97021.81;4980279;28;20216;-73
2022/12/21 04:51:15;;;;;;;34.00;24.47;;;;;;;-1.26;100.00;97028.78;4974908;28;20598;-71
2022/12/21 04:53:43;;;;;;;37.20;24.77;;;;;;;-1.36;100.00;97018.25;5022423;28;20788;-73
2022/12/21 04:56:11;;;;;;;33.40;23.97;;;;;;;-1.28;100.00;97016.84;5029213;28;20718;-71
2022/12/21 04:58:40;;;;;;;33.47;24.10;;;;;;;-1.36;100.00;97027.78;5015279;28;20812;-73
2022/12/21 05:01:12;;;;;;;36.23;24.97;;;;;;;-1.23;100.00;97014.72;5028057;28;20206;-73
2022/12/21 05:03:39;;;;;;;37.13;24.77;;;;;;;-1.40;100.00;97016.81;5025948;28;20223;-73
2022/12/21 05:06:08;;;;;;;40.67;23.43;;;;;;;-1.36;100.00;97018.25;4985724;28;20212;-73
2022/12/21 05:08:37;;;;;;;34.97;24.73;;;;;;;-1.35;100.00;97019.06;5026328;28;20365;-73
2022/12/21 05:11:09;;;;;;;39.70;24.87;;;;;;;-1.37;100.00;97003.59;5029939;28;20225;-74
2022/12/21 05:13:37;;;;;;;37.53;23.93;;;;;;;-1.32;100.00;97009.28;5012043;28;20426;-72
2022/12/21 05:16:06;;;;;;;34.70;25.13;;;;;;;-1.39;100.00;96997.69;5025675;28;20207;-73
2022/12/21 05:18:34;;;;;;;42.40;26.10;;;;;;;-1.43;100.00;96996.25;5026862;28;20302;-72
2022/12/21 05:21:01;;;;;;;38.13;25.83;;;;;;;-1.34;100.00;97010.31;5009407;28;20227;-74
2022/12/21 05:23:29;;;;;;;39.10;26.47;;;;;;;-1.44;100.00;96991.16;4984602;28;20231;-74
2022/12/21 05:25:57;;;;;;;36.87;25.17;;;;;;;-1.42;100.00;96986.66;5010331;28;20211;-72
2022/12/21 05:28:25;;;;;;;35.00;23.67;;;;;;;-1.39;100.00;96986.44;5010113;28;20370;-73
2022/12/21 05:30:53;;;;;;;38.13;24.17;;;;;;;-1.35;100.00;96982.66;5026787;28;20583;-70
2022/12/21 05:33:21;;;;;;;35.80;24.63;;;;;;;-1.49;100.00;96981.13;5026949;28;20294;-70
2022/12/21 05:35:49;;;;;;;40.77;27.97;;;;;;;-1.53;100.00;96990.06;5028442;28;20207;-72
2022/12/21 05:38:16;;;;;;;40.90;25.87;;;;;;;-1.50;100.00;96984.66;4985149;28;20217;-72
2022/12/21 05:40:46;;;;;;;38.73;26.03;;;;;;;-1.41;100.00;96996.13;5029167;28;20863;-73
2022/12/21 05:43:16;;;;;;;38.77;25.47;;;;;;;-1.41;100.00;96993.53;5020848;28;20214;-72
2022/12/21 05:45:44;;;;;;;39.77;25.83;;;;;;;-1.42;100.00;96989.25;5020654;28;20204;-73
2022/12/21 05:48:12;;;;;;;40.87;25.30;;;;;;;-1.45;100.00;96998.13;5028104;28;20202;-72
2022/12/21 05:50:39;;;;;;;40.80;25.73;;;;;;;-1.31;100.00;96997.13;5027182;28;20220;-74
2022/12/21 05:53:07;;;;;;;36.77;23.83;;;;;;;-1.34;100.00;96995.56;4991665;28;20476;-72
2022/12/21 05:55:43;;;;;;;38.40;25.23;;;;;;;-1.27;100.00;97000.31;5025040;28;20717;-73
2022/12/21 05:58:11;;;;;;;43.57;26.53;;;;;;;-1.36;100.00;97000.03;5029557;28;20730;-72
2022/12/21 06:00:40;;;;;;;40.30;25.27;;;;;;;-1.26;100.00;96999.34;5011720;28;20199;-73
2022/12/21 06:03:08;;;;;;;40.20;26.43;;;;;;;-1.20;100.00;96997.13;5029124;28;20675;-72
2022/12/21 06:05:36;;;;;;;41.10;26.60;;;;;;;-1.17;100.00;96996.91;5022072;28;20289;-74
2022/12/21 06:08:04;;;;;;;38.70;26.90;;;;;;;-1.28;100.00;97001.25;5027657;28;20517;-74
2022/12/21 06:10:33;;;;;;;45.20;27.30;;;;;;;-1.31;100.00;97002.31;4991926;28;20425;-73
2022/12/21 06:13:00;;;;;;;47.17;28.70;;;;;;;-1.35;100.00;97003.47;5029086;28;20582;-74
2022/12/21 06:15:28;;;;;;;47.00;27.20;;;;;;;-1.25;100.00;97003.59;5003629;28;20242;-73
2022/12/21 06:17:57;;;;;;;37.23;26.47;;;;;;;-1.34;100.00;97005.13;5029052;28;20235;-72
2022/12/21 06:20:31;;;;;;;41.83;26.47;;;;;;;-1.35;100.00;97003.47;5026627;28;20690;-73
2022/12/21 06:22:59;;;;;;;41.27;26.80;;;;;;;-1.25;100.00;97009.66;5024421;28;20310;-73
2022/12/21 06:25:26;;;;;;;41.53;27.20;;;;;;;-1.26;100.00;97007.16;4984968;28;20520;-74
2022/12/21 06:27:54;;;;;;;42.90;27.07;;;;;;;-1.24;100.00;97006.09;5029049;28;20233;-73
2022/12/21 06:30:21;;;;;;;41.53;25.70;;;;;;;-1.18;100.00;97004.81;5025764;28;20607;-72
2022/12/21 06:32:49;;;;;;;46.23;28.30;;;;;;;-1.22;100.00;97016.38;5010344;28;20215;-74
2022/12/21 06:35:18;;;;;;;44.90;27.10;;;;;;;-1.28;100.00;97004.69;5027665;28;20231;-72
2022/12/21 06:37:45;;;;;;;41.60;27.00;;;;;;;-1.24;100.00;97011.31;5025220;28;20211;-76
2022/12/21 06:40:17;;;;;;;43.53;27.47;;;;;;;-1.28;100.00;97006.44;5008268;28;20202;-72
2022/12/21 06:42:45;;;;;;;43.70;26.80;;;;;;;-1.14;100.00;97008.00;5019405;28;20681;-73
2022/12/21 06:45:12;;;;;;;41.70;27.70;;;;;;;-1.20;100.00;97012.75;5028239;28;20781;-72
2022/12/21 06:47:40;;;;;;;41.10;25.20;;;;;;;-1.15;100.00;97014.16;5008952;28;20352;-73
2022/12/21 06:50:08;;;;;;;39.27;27.00;;;;;;;-1.13;100.00;97020.91;5028901;28;20200;-72
2022/12/21 06:52:37;;;;;;;38.37;26.53;;;;;;;-1.15;100.00;97020.19;5025739;28;20461;-73
2022/12/21 06:55:06;;;;;;;40.03;27.00;;;;;;;-1.18;100.00;97003.03;5027816;28;20227;-71
2022/12/21 06:57:34;;;;;;;37.73;26.70;;;;;;;-1.08;100.00;97020.56;4981383;28;20298;-73
2022/12/21 07:00:02;;;;;;;38.97;25.00;;;;;;;-1.05;100.00;97026.38;5009730;28;20214;-72
2022/12/21 07:02:30;;;;;;;43.03;26.87;;;;;;;-1.14;100.00;97023.63;5029595;28;20203;-73
2022/12/21 07:04:57;;;;;;;40.67;26.57;;;;;;;-1.18;100.00;97007.41;5008785;28;20231;-71
2022/12/21 07:07:25;;;;;;;39.70;25.47;;;;;;;-1.13;100.00;97015.72;5027601;28;20199;-73
2022/12/21 07:09:54;;;;;;;41.07;27.87;;;;;;;-1.11;100.00;97019.03;5027665;28;20203;-71
2022/12/21 07:12:21;;;;;;;44.40;28.43;;;;;;;-1.13;100.00;97020.91;5028878;28;20326;-73
2022/12/21 07:14:49;;;;;;;40.43;26.73;;;;;;;-1.12;100.00;97025.19;4985981;28;20231;-71
2022/12/21 07:17:17;;;;;;;39.70;26.57;;;;;;;-1.19;100.00;97030.00;5021642;28;20203;-74
2022/12/21 07:19:49;;;;;;;43.27;26.90;;;;;;;-1.14;100.00;97032.22;5011903;28;20309;-72
2022/12/21 07:22:16;;;;;;;44.40;26.73;;;;;;;-1.14;100.00;97021.00;5026410;28;20333;-73
2022/12/21 07:24:44;;;;;;;40.57;26.63;;;;;;;-1.12;100.00;97029.53;5029547;28;20254;-72
2022/12/21 07:27:13;;;;;;;38.10;27.67;;;;;;;-1.06;100.00;97032.50;5024792;28;20781;-73
2022/12/21 07:29:40;;;;;;;48.23;28.07;;;;;;;-1.02;100.00;97031.34;4988872;28;20218;-74
2022/12/21 07:32:08;;;;;;;42.70;27.70;;;;;;;-1.11;100.00;97033.78;5028997;28;20493;-73
2022/12/21 07:34:35;;;;;;;48.20;26.90;;;;;;;-1.13;100.00;97031.31;5017954;28;20227;-71
2022/12/21 07:37:03;;;;;;;47.40;28.63;;;;;;;-1.05;100.00;97028.13;5027131;28;20212;-73
2022/12/21 07:39:30;;;;;;;42.43;25.57;;;;;;;-1.10;100.00;97031.09;5032449;28;20204;-73
2022/12/21 07:41:58;;;;;;;44.37;26.77;;;;;;;-1.12;100.00;97034.72;5030190;28;20509;-72
2022/12/21 07:44:27;;;;;;;41.83;28.00;;;;;;;-1.17;100.00;97029.84;5032809;28;20229;-73
2022/12/21 07:46:54;;;;;;;41.73;26.77;;;;;;;-1.07;100.00;97024.81;4987697;28;20215;-72
2022/12/21 07:49:22;;;;;;;42.20;27.50;;;;;;;-1.11;100.00;97028.59;5029842;28;20208;-73
2022/12/21 07:51:50;;;;;;;44.57;27.97;;;;;;;-1.12;100.00;97030.38;5013125;28;20231;-71
2022/12/21 07:54:17;;;;;;;42.53;26.03;;;;;;;-1.09;100.00;97017.13;5031258;28;20525;-74
2022/12/21 07:56:45;;;;;;;43.07;26.30;;;;;;;-1.06;100.00;97024.72;5031767;28;20215;-71
2022/12/21 07:59:13;;;;;;;42.07;28.37;;;;;;;-0.98;100.00;97021.50;5030205;28;20225;-71
2022/12/21 08:01:42;;;;;;;39.77;25.23;;;;;;;-0.95;100.00;97021.28;4984486;28;20702;-74
2022/12/21 08:04:09;;;;;;;43.07;27.07;;;;;;;-0.88;100.00;97024.25;5028217;28;20739;-72
2022/12/21 08:06:37;;;;;;;40.13;26.50;;;;;;;-0.83;100.00;97019.53;5014044;28;20466;-72
2022/12/21 08:09:12;;;;;;;43.53;27.63;;;;;;;-0.81;100.00;97024.63;5029376;28;20483;-73
2022/12/21 08:11:40;;;;;;;42.73;28.67;;;;;;;-0.79;100.00;97020.94;5032602;28;20250;-73
2022/12/21 08:14:07;;;;;;;40.03;27.93;;;;;;;-0.75;100.00;97032.81;5026265;28;20646;-71
2022/12/21 08:16:35;;;;;;;39.40;25.90;;;;;;;-0.87;100.00;97020.72;5031818;28;20705;-73
2022/12/21 08:19:04;;;;;;;41.80;26.70;;;;;;;-0.79;100.00;97039.16;4987480;28;20489;-72
2022/12/21 08:21:31;;;;;;;42.50;27.17;;;;;;;-0.80;100.00;97040.09;5029873;28;20442;-73
2022/12/21 08:23:59;;;;;;;43.30;27.03;;;;;;;-0.77;100.00;97037.28;5012357;28;20223;-70
2022/12/21 08:26:26;;;;;;;38.30;26.40;;;;;;;-0.73;100.00;97045.69;5031725;28;20211;-72
2022/12/21 08:28:54;;;;;;;39.80;25.47;;;;;;;-0.81;100.00;97028.03;5029421;28;20235;-71
2022/12/21 08:31:28;;;;;;;34.47;24.87;;;;;;;-0.77;100.00;97028.66;5024345;28;21104;-71
2022/12/21 08:33:55;;;;;;;36.70;24.63;;;;;;;-0.76;100.00;97036.34;4969883;28;20718;-73
2022/12/21 08:36:25;;;;;;;42.17;26.80;;;;;;;-0.70;100.00;97032.44;5025766;28;20298;-71
2022/12/21 08:38:53;;;;;;;39.40;24.60;;;;;;;-0.64;100.00;97028.53;5013998;28;20199;-73
2022/12/21 08:41:37;;;;;;;34.97;25.03;;;;;;;-0.67;100.00;97021.78;5029620;28;20218;-73
2022/12/21 08:44:05;;;;;;;40.70;27.20;;;;;;;-0.64;100.00;97015.53;5026928;28;20654;-71
2022/12/21 08:46:33;;;;;;;36.63;25.27;;;;;;;-0.61;100.00;97023.91;5027873;28;20246;-73
2022/12/21 08:49:01;;;;;;;41.73;25.40;;;;;;;-0.54;100.00;97023.47;4990408;28;20832;-73
2022/12/21 08:51:30;;;;;;;33.47;26.03;;;;;;;-0.67;100.00;97011.38;5024922;28;20657;-73
2022/12/21 08:53:57;;;;;;;38.57;26.17;;;;;;;-0.59;100.00;97010.81;5014831;28;20237;-73
2022/12/21 08:56:25;;;;;;;37.60;24.50;;;;;;;-0.59;100.00;97016.00;5027854;28;20404;-71
2022/12/21 08:58:53;;;;;;;38.77;25.97;;;;;;;-0.62;100.00;97005.84;5031153;28;20196;-71
2022/12/21 09:01:21;;;;;;;35.50;24.47;;;;;;;-0.61;100.00;97012.69;5024825;28;20211;-70
2022/12/21 09:03:49;;;;;;;39.20;25.13;;;;;;;-0.62;100.00;97011.84;4986715;28;20233;-72
2022/12/21 09:06:17;;;;;;;39.53;26.50;;;;;;;-0.66;100.00;97010.44;4978817;28;20420;-73
2022/12/21 09:08:46;;;;;;;34.10;23.33;;;;;;;-0.41;100.00;97015.53;5030292;28;20226;-74
2022/12/21 09:11:16;;;;;;;38.47;25.30;;;;;;;-0.21;100.00;97019.16;5027512;28;20212;-73
2022/12/21 09:13:44;;;;;;;36.50;24.40;;;;;;;-0.28;100.00;97010.19;5031137;28;20782;-73
2022/12/21 09:16:13;;;;;;;41.60;26.00;;;;;;;-0.17;100.00;97021.44;5020216;28;20365;-74
2022/12/21 09:18:41;;;;;;;43.70;26.10;;;;;;;-0.17;100.00;97015.41;5030582;28;20281;-74
2022/12/21 09:21:09;;;;;;;36.27;25.90;;;;;;;-0.20;100.00;97024.28;4983481;28;20973;-71
2022/12/21 09:23:36;;;;;;;34.67;24.73;;;;;;;-0.21;100.00;97011.34;5029771;28;20227;-74
2022/12/21 09:26:07;;;;;;;35.17;24.23;;;;;;;-0.11;100.00;97008.88;5028351;28;20200;-72
2022/12/21 09:28:35;;;;;;;41.20;24.83;;;;;;;-0.06;100.00;97012.78;5029433;28;20207;-72
2022/12/21 09:31:08;;;;;;;34.20;23.67;;;;;;;-0.09;100.00;97001.75;5023383;28;20456;-72
2022/12/21 09:33:36;;;;;;;35.43;23.63;;;;;;;0.13;100.00;97011.28;5029888;28;20238;-74
2022/12/21 09:36:04;;;;;;;31.83;23.33;;;;;;;0.06;100.00;97010.97;4985754;28;20864;-73
2022/12/21 09:38:31;;;;;;;33.23;24.10;;;;;;;0.17;100.00;97012.69;5029411;28;20506;-74
2022/12/21 09:41:03;;;;;;;33.00;23.70;;;;;;;0.31;100.00;97013.41;5029484;28;20200;-72
2022/12/21 09:43:40;;;;;;;36.47;25.30;;;;;;;0.17;100.00;97007.50;5030050;28;20219;-74
2022/12/21 09:46:11;;;;;;;35.37;23.43;;;;;;;0.20;100.00;97003.81;5024825;28;20208;-72
2022/12/21 09:48:41;;;;;;;37.23;25.10;;;;;;;0.24;100.00;97002.63;5029624;28;20231;-74
2022/12/21 09:51:14;;;;;;;34.67;24.57;;;;;;;0.04;100.00;96994.66;4980959;28;21954;-70
2022/12/21 09:53:45;;;;;;;30.80;24.50;;;;;;;0.19;100.00;97003.00;5030768;28;20232;-73
2022/12/21 09:56:17;;;;;;;33.57;24.00;;;;;;;0.26;100.00;96993.75;5024069;28;20603;-74
2022/12/21 09:58:48;;;;;;;37.43;25.03;;;;;;;0.52;100.00;96988.19;5030571;28;20200;-74
2022/12/21 10:01:19;;;;;;;34.47;25.53;;;;;;;0.62;100.00;96987.44;5022817;28;20402;-72
2022/12/21 10:04:03;;;;;;;39.70;25.90;;;;;;;0.63;100.00;96986.50;5026919;28;20219;-73
2022/12/21 10:06:51;;;;;;;37.93;26.17;;;;;;;0.67;100.00;96990.50;4982236;28;20226;-74
2022/12/21 10:09:28;;;;;;;35.83;25.73;;;;;;;0.49;100.00;96995.44;5027189;28;20776;-73
2022/12/21 10:12:03;;;;;;;34.37;25.00;;;;;;;0.36;100.00;96995.59;5027605;28;20226;-72
2022/12/21 10:14:43;;;;;;;29.00;22.70;;;;;;;0.50;100.00;96984.88;5028910;28;20219;-73
2022/12/21 10:17:15;;;;;;;37.03;23.90;;;;;;;0.29;100.00;96990.03;5020294;28;20212;-71
2022/12/21 10:20:10;;;;;;;31.47;22.43;;;;;;;0.31;100.00;96998.56;5026072;28;20947;-72
2022/12/21 10:22:41;;;;;;;31.20;22.20;;;;;;;0.29;100.00;96987.44;4985820;28;20207;-73
2022/12/21 10:25:15;;;;;;;33.67;22.30;;;;;;;0.21;100.00;96987.25;5027205;28;20250;-73
2022/12/21 10:27:45;;;;;;;34.33;24.00;;;;;;;0.05;100.00;96978.06;5030034;28;20670;-72
2022/12/21 10:30:17;;;;;;;31.97;23.23;;;;;;;0.12;100.00;96978.38;5024278;28;20204;-70
2022/12/21 10:32:47;;;;;;;34.70;23.50;;;;;;;0.00;100.00;96972.41;5030540;28;20234;-72
2022/12/21 10:35:18;;;;;;;31.23;23.17;;;;;;;0.12;100.00;96963.59;5021891;28;20249;-74
2022/12/21 10:37:49;;;;;;;31.80;23.17;;;;;;;0.14;100.00;96966.06;4988302;28;20398;-71
2022/12/21 10:40:17;;;;;;;34.40;22.93;;;;;;;0.22;100.00;96973.25;5026162;28;20261;-73
2022/12/21 10:42:46;;;;;;;32.13;22.47;;;;;;;0.41;100.00;96959.56;5030301;28;20714;-74
2022/12/21 10:45:17;;;;;;;36.70;23.40;;;;;;;0.52;100.00;96962.09;5021929;28;20220;-71
2022/12/21 10:47:52;;;;;;;33.37;22.87;;;;;;;0.56;100.00;96965.28;5021447;28;20207;-70
2022/12/21 10:50:23;;;;;;;40.03;24.93;;;;;;;0.55;100.00;96953.22;5025924;28;20508;-72
2022/12/21 10:52:52;;;;;;;34.13;24.03;;;;;;;0.56;100.00;96955.69;5020568;28;20565;-71
2022/12/21 10:55:32;;;;;;;32.33;22.87;;;;;;;0.61;100.00;96949.28;5003461;28;20231;-73
2022/12/21 10:58:16;;;;;;;33.90;23.23;;;;;;;0.51;100.00;96950.03;5027729;28;20511;-71
2022/12/21 11:00:56;;;;;;;32.70;21.93;;;;;;;0.52;100.00;96951.66;5023645;28;20214;-73
2022/12/21 11:03:26;;;;;;;32.10;22.17;;;;;;;0.51;100.00;96939.59;5023350;28;20214;-73
2022/12/21 11:05:54;;;;;;;34.20;24.33;;;;;;;0.61;100.00;96949.28;5032713;28;20204;-71
2022/12/21 11:08:28;;;;;;;29.93;22.23;;;;;;;0.47;100.00;96951.22;5029196;28;20314;-73
2022/12/21 11:10:58;;;;;;;34.53;23.13;;;;;;;0.50;100.00;96944.94;4989527;28;20219;-71
2022/12/21 11:13:27;;;;;;;31.20;22.60;;;;;;;0.56;100.00;96941.84;4985757;28;20730;-72
2022/12/21 11:15:59;;;;;;;31.50;21.83;;;;;;;0.57;100.00;96941.72;5030543;28;20207;-73
2022/12/21 11:18:40;;;;;;;32.37;21.67;;;;;;;0.55;100.00;96938.38;5031310;28;20221;-71
2022/12/21 11:21:20;;;;;;;28.90;21.53;;;;;;;0.56;100.00;96940.03;5026014;28;20196;-73
2022/12/21 11:23:54;;;;;;;35.53;22.93;;;;;;;0.64;100.00;96942.00;5025883;28;20214;-73
2022/12/21 11:26:26;;;;;;;30.83;21.90;;;;;;;0.63;100.00;96945.56;5033233;28;20211;-73
2022/12/21 11:29:02;;;;;;;31.50;22.40;;;;;;;0.80;100.00;96933.75;4985120;28;20226;-73
2022/12/21 11:31:31;;;;;;;28.77;21.43;;;;;;;1.03;100.00;96931.00;5029631;28;20608;-70
2022/12/21 11:34:19;;;;;;;33.60;22.90;;;;;;;1.05;100.00;96928.22;5032485;28;20524;-73
2022/12/21 11:36:55;;;;;;;29.13;21.30;;;;;;;1.26;100.00;96923.81;5009970;28;20210;-72